LFRK/CFR METAR and TAF weather

Enter ICAO airport designator
Station Type Date Time Source
LFRK METAR 2021/05/13 05:00 UTC NOAA

LFRK 130500Z AUTO 21010KT 9999 FEW016 BKN023 BKN033 08/07 Q1006


Station Type Date Time Source
LFRK Decoded METAR 2021/05/13 05:00 UTC NOAA

Caen, France (LFRK) 49-11N 000-27W 67M
May 13, 2021 - 01:00 AM EDT / 2021.05.13 0500 UTC
Wind: from the SSW (210 degrees) at 12 MPH (10 KT):0
Visibility: greater than 7 mile(s):0
Sky conditions: mostly cloudy
Temperature: 46 F (8 C)
Dew Point: 44 F (7 C)
Relative Humidity: 93%
Pressure (altimeter): 29.71 in. Hg (1006 hPa)
ob: LFRK 130500Z AUTO 21010KT 9999 FEW016 BKN023 BKN033 08/07 Q1006
cycle: 5

Station Type Date Time Source
LFRK TAF 2020/06/02 06:24 UTC NOAA

TAF LFRK 020500Z 0206/0306 33004KT CAVOK

Example: see airport list